Time;durP1;ratioP1;P1;durP2;ratioP2;P2;SDS_P1;SDS_P2;PMS_P1;PMS_P2;Temp;Humidity;BMP_temperature;BMP_pressure;BME280_temperature;BME280_humidity;BME280_pressure;Samples;Min_cycle;Max_cycle;Signal;HPM_P1;HPM_P2
2023/08/08 00:02:12;;;;;;;2.50;1.10;;;24.20;63.80;;;;;;218963;1276;22543;-67
2023/08/08 00:07:19;;;;;;;1.60;1.00;;;24.20;64.10;;;;;;218836;1283;25435;-67
2023/08/08 00:12:23;;;;;;;3.00;0.90;;;24.20;63.80;;;;;;218769;1284;22646;-64
2023/08/08 00:17:31;;;;;;;1.40;0.90;;;24.20;63.60;;;;;;218763;1283;24333;-65
2023/08/08 00:22:38;;;;;;;1.90;1.00;;;24.20;63.90;;;;;;218999;1280;22547;-65
2023/08/08 00:27:43;;;;;;;1.90;1.10;;;24.20;64.00;;;;;;218815;1279;22543;-65
2023/08/08 00:32:48;;;;;;;1.40;0.80;;;24.10;64.10;;;;;;218791;1283;25601;-67
2023/08/08 00:37:53;;;;;;;1.00;0.90;;;24.10;64.40;;;;;;218818;1283;23001;-65
2023/08/08 00:42:57;;;;;;;2.80;1.00;;;24.10;64.00;;;;;;218913;1282;25281;-67
2023/08/08 00:48:01;;;;;;;1.00;0.90;;;24.10;64.20;;;;;;218754;1286;22737;-65
2023/08/08 00:53:10;;;;;;;1.40;1.10;;;24.10;64.10;;;;;;218982;1283;23115;-65
2023/08/08 00:58:16;;;;;;;1.30;0.80;;;24.10;64.10;;;;;;218776;1283;22656;-65
2023/08/08 01:03:21;;;;;;;0.90;0.70;;;24.10;64.40;;;;;;218797;1288;24298;-66
2023/08/08 01:08:35;;;;;;;1.20;0.90;;;24.10;64.00;;;;;;218858;1283;23199;-65
2023/08/08 01:13:53;;;;;;;1.70;0.90;;;24.10;64.30;;;;;;218852;1289;22709;-64
2023/08/08 01:19:04;;;;;;;1.70;0.80;;;24.10;64.10;;;;;;219778;1287;22701;-64
2023/08/08 01:24:22;;;;;;;2.00;0.90;;;24.10;64.60;;;;;;220359;1286;22912;-63
2023/08/08 01:29:27;;;;;;;0.90;0.80;;;24.20;63.90;;;;;;218961;1276;22611;-64
2023/08/08 01:34:31;;;;;;;0.70;0.70;;;24.10;63.90;;;;;;219605;1285;25463;-64
2023/08/08 01:39:38;;;;;;;1.40;1.10;;;24.10;63.90;;;;;;218967;1288;22537;-64
2023/08/08 01:44:43;;;;;;;0.90;0.80;;;24.10;64.00;;;;;;218854;1279;24335;-65
2023/08/08 01:49:47;;;;;;;2.70;0.80;;;24.10;64.10;;;;;;218810;1276;22752;-66
2023/08/08 01:54:51;;;;;;;1.20;0.70;;;24.00;64.10;;;;;;218767;1277;22565;-64
2023/08/08 01:59:56;;;;;;;1.50;0.80;;;24.00;64.10;;;;;;218814;1284;22660;-64
2023/08/08 02:05:02;;;;;;;1.30;1.00;;;24.00;64.10;;;;;;218720;1284;22533;-65
2023/08/08 02:10:09;;;;;;;0.80;0.60;;;24.00;64.10;;;;;;218672;1286;22547;-67
2023/08/08 02:15:13;;;;;;;2.50;0.80;;;24.00;64.20;;;;;;218533;1289;233785;-65
2023/08/08 02:20:18;;;;;;;1.40;0.90;;;24.00;64.30;;;;;;218773;1283;24100;-67
2023/08/08 02:25:22;;;;;;;1.50;0.80;;;24.00;64.20;;;;;;218873;1286;22563;-66
2023/08/08 02:30:26;;;;;;;1.20;1.00;;;23.90;64.20;;;;;;218861;1289;22652;-63
2023/08/08 02:35:31;;;;;;;1.20;1.00;;;23.90;64.60;;;;;;218861;1290;24243;-65
2023/08/08 02:40:35;;;;;;;0.70;0.70;;;23.90;64.20;;;;;;218881;1289;22534;-65
2023/08/08 02:45:39;;;;;;;0.90;0.70;;;23.90;64.10;;;;;;218632;1283;22537;-65
2023/08/08 02:50:44;;;;;;;0.90;0.90;;;23.90;64.30;;;;;;218960;1286;22540;-65
2023/08/08 02:55:48;;;;;;;1.40;0.80;;;23.90;64.00;;;;;;218846;1290;22678;-65
2023/08/08 03:00:53;;;;;;;1.00;0.80;;;23.90;64.20;;;;;;219010;1288;25316;-65
2023/08/08 03:05:58;;;;;;;0.70;0.60;;;23.90;64.00;;;;;;218923;1286;25374;-64
2023/08/08 03:11:04;;;;;;;1.10;0.90;;;23.90;64.20;;;;;;218904;1286;22536;-64
2023/08/08 03:16:08;;;;;;;1.70;1.00;;;23.90;64.60;;;;;;218746;1287;24405;-64
2023/08/08 03:21:13;;;;;;;1.00;0.90;;;23.90;64.00;;;;;;223964;1289;22655;-64
2023/08/08 03:26:17;;;;;;;1.70;0.90;;;24.00;63.90;;;;;;220888;1289;22536;-64
2023/08/08 03:31:23;;;;;;;4.30;1.00;;;24.10;63.90;;;;;;220538;1285;23925;-64
2023/08/08 03:36:28;;;;;;;1.00;0.80;;;24.00;63.50;;;;;;218778;1276;22747;-64
2023/08/08 03:41:36;;;;;;;1.30;0.90;;;24.00;63.80;;;;;;218934;1289;23016;-63
2023/08/08 03:46:47;;;;;;;0.70;0.60;;;23.90;64.10;;;;;;218828;1286;25425;-64
2023/08/08 03:51:54;;;;;;;3.20;0.50;;;23.90;64.30;;;;;;219013;1286;22551;-67
2023/08/08 03:56:58;;;;;;;0.70;0.70;;;23.90;64.10;;;;;;218892;1285;24233;-65
2023/08/08 04:02:04;;;;;;;1.70;0.90;;;23.90;64.00;;;;;;218811;1283;22602;-64
2023/08/08 04:07:14;;;;;;;0.70;0.70;;;23.90;64.00;;;;;;218923;1289;22642;-65
2023/08/08 04:12:22;;;;;;;0.90;0.70;;;23.80;63.80;;;;;;218750;1289;22547;-64
2023/08/08 04:17:26;;;;;;;1.40;0.80;;;23.80;64.20;;;;;;218830;1285;22566;-64
2023/08/08 04:22:30;;;;;;;0.80;0.80;;;23.80;63.80;;;;;;218939;1291;22576;-64
2023/08/08 04:27:35;;;;;;;0.70;0.70;;;23.80;63.90;;;;;;218930;1291;22537;-65
2023/08/08 04:32:42;;;;;;;0.80;0.80;;;23.80;63.90;;;;;;218595;1286;25413;-64
2023/08/08 04:37:46;;;;;;;0.90;0.70;;;23.70;64.00;;;;;;218870;1289;22539;-64
2023/08/08 04:42:51;;;;;;;1.60;0.80;;;23.70;63.70;;;;;;218765;1290;22590;-65
2023/08/08 04:47:55;;;;;;;0.90;0.70;;;23.80;64.00;;;;;;218827;1286;22572;-68
2023/08/08 04:53:01;;;;;;;1.20;1.00;;;23.80;63.90;;;;;;218991;1286;24359;-64
2023/08/08 04:58:05;;;;;;;2.50;0.70;;;23.80;63.70;;;;;;218815;1291;22537;-64
2023/08/08 05:03:10;;;;;;;0.70;0.70;;;23.70;63.70;;;;;;218757;1277;22735;-65
2023/08/08 05:08:14;;;;;;;0.80;0.80;;;23.80;63.70;;;;;;218894;1283;22527;-64
2023/08/08 05:13:21;;;;;;;0.60;0.60;;;23.70;63.70;;;;;;218948;1289;22655;-66
2023/08/08 05:18:26;;;;;;;2.60;0.80;;;23.80;63.30;;;;;;218988;1286;25319;-66
2023/08/08 05:23:39;;;;;;;2.20;0.80;;;23.70;63.60;;;;;;218948;1276;23924;-63
2023/08/08 05:28:43;;;;;;;0.90;0.70;;;23.80;63.60;;;;;;218754;1288;22676;-65
2023/08/08 05:33:49;;;;;;;1.00;0.90;;;23.80;63.60;;;;;;218863;1291;22543;-67
2023/08/08 05:38:53;;;;;;;2.20;0.80;;;23.80;63.70;;;;;;218881;1284;24260;-66
2023/08/08 05:43:57;;;;;;;1.20;0.70;;;23.80;63.70;;;;;;218615;1277;22641;-64
2023/08/08 05:49:01;;;;;;;1.10;0.80;;;23.80;63.60;;;;;;218899;1289;23098;-65
2023/08/08 05:54:05;;;;;;;0.70;0.70;;;23.80;63.60;;;;;;218588;1277;22532;-65
2023/08/08 05:59:13;;;;;;;0.60;0.60;;;23.80;63.60;;;;;;218773;1270;22598;-65
2023/08/08 06:04:18;;;;;;;1.00;0.70;;;23.90;63.30;;;;;;218907;1283;22537;-54
2023/08/08 06:09:22;;;;;;;3.40;0.80;;;23.90;63.80;;;;;;218748;1276;22555;-50
2023/08/08 06:14:26;;;;;;;3.10;1.50;;;23.80;64.90;;;;;;218940;1285;22539;-53
2023/08/08 06:19:31;;;;;;;1.40;1.20;;;23.90;64.80;;;;;;218915;1289;22556;-49
2023/08/08 06:24:35;;;;;;;3.80;1.10;;;23.90;64.60;;;;;;218634;1284;23039;-49
2023/08/08 06:29:39;;;;;;;2.10;1.30;;;23.90;64.80;;;;;;218492;1274;24233;-48
2023/08/08 06:34:44;;;;;;;1.60;1.00;;;23.90;64.80;;;;;;218549;1283;24240;-51
2023/08/08 06:39:48;;;;;;;10.10;4.50;;;24.00;64.80;;;;;;218647;1283;25322;-49
2023/08/08 06:44:52;;;;;;;11.20;5.40;;;24.00;66.10;;;;;;218760;1286;25300;-49
2023/08/08 06:49:56;;;;;;;4.10;2.80;;;24.10;65.70;;;;;;218582;1275;23915;-48
2023/08/08 06:55:01;;;;;;;6.50;2.70;;;24.00;65.50;;;;;;218694;1280;22536;-51
2023/08/08 07:00:06;;;;;;;3.80;2.20;;;24.00;65.40;;;;;;218732;1283;24770;-47
2023/08/08 07:05:10;;;;;;;4.10;2.00;;;24.10;65.50;;;;;;218834;1283;22755;-52
2023/08/08 07:10:14;;;;;;;13.50;2.40;;;24.00;65.80;;;;;;218709;1285;24326;-48
2023/08/08 07:15:19;;;;;;;7.40;2.20;;;24.10;65.70;;;;;;218793;1279;22675;-50
2023/08/08 07:20:24;;;;;;;15.10;2.00;;;24.20;65.10;;;;;;218661;1283;24225;-51
2023/08/08 07:25:28;;;;;;;5.80;1.90;;;24.20;65.30;;;;;;226098;1286;24094;-49
2023/08/08 07:30:32;;;;;;;6.20;2.40;;;24.50;64.10;;;;;;218330;1283;22552;-46
2023/08/08 07:35:46;;;;;;;4.40;2.10;;;24.50;64.10;;;;;;218420;1286;25035;-48
2023/08/08 07:40:50;;;;;;;6.10;2.00;;;24.50;64.20;;;;;;218485;1279;24225;-48
2023/08/08 07:45:54;;;;;;;10.00;2.60;;;24.40;64.20;;;;;;218714;1284;23735;-47
2023/08/08 07:50:58;;;;;;;3.90;2.30;;;24.40;63.60;;;;;;218718;1290;22534;-49
2023/08/08 07:56:05;;;;;;;3.90;2.00;;;24.40;64.20;;;;;;218621;1291;22537;-46
2023/08/08 08:01:09;;;;;;;10.80;4.00;;;24.50;64.50;;;;;;218731;1286;24253;-44
2023/08/08 08:06:15;;;;;;;21.70;17.20;;;24.50;64.50;;;;;;218636;1282;22537;-49
2023/08/08 08:11:19;;;;;;;18.30;14.20;;;24.60;64.60;;;;;;218855;1288;24270;-50
2023/08/08 08:16:24;;;;;;;15.90;13.20;;;24.60;64.00;;;;;;218795;1288;22655;-47
2023/08/08 08:21:28;;;;;;;15.40;11.00;;;24.60;64.20;;;;;;218692;1283;22554;-46
2023/08/08 08:26:34;;;;;;;15.50;10.90;;;24.50;64.20;;;;;;218771;1291;24912;-49
2023/08/08 08:31:38;;;;;;;15.10;11.20;;;24.70;63.80;;;;;;218645;1289;22584;-46
2023/08/08 08:36:42;;;;;;;16.30;11.30;;;24.80;63.40;;;;;;218491;1279;22558;-48
2023/08/08 08:41:49;;;;;;;15.30;11.00;;;24.70;63.90;;;;;;220243;1286;22585;-47
2023/08/08 08:46:55;;;;;;;12.40;10.10;;;24.80;63.60;;;;;;218747;1283;22556;-47
2023/08/08 08:52:04;;;;;;;12.50;10.00;;;24.90;63.80;;;;;;219026;1276;22551;-50
2023/08/08 08:57:09;;;;;;;13.60;9.40;;;25.10;62.40;;;;;;218762;1277;25515;-48
2023/08/08 09:02:13;;;;;;;13.70;10.20;;;25.00;62.70;;;;;;218698;1286;22703;-50
2023/08/08 09:07:26;;;;;;;13.10;9.10;;;25.00;62.60;;;;;;218684;1285;25434;-51
2023/08/08 09:12:31;;;;;;;10.30;8.80;;;25.10;62.40;;;;;;218811;1277;25428;-49
2023/08/08 09:17:43;;;;;;;13.90;9.50;;;25.00;62.60;;;;;;218978;1286;22547;-48
2023/08/08 09:22:52;;;;;;;10.30;8.90;;;25.10;62.90;;;;;;218802;1286;22663;-49
2023/08/08 09:27:57;;;;;;;13.60;9.20;;;25.00;62.70;;;;;;218746;1285;22602;-47
2023/08/08 09:33:02;;;;;;;12.00;8.90;;;25.00;62.60;;;;;;218890;1276;25369;-48
2023/08/08 09:38:09;;;;;;;10.50;9.10;;;25.10;62.10;;;;;;218807;1289;22563;-49
2023/08/08 09:43:13;;;;;;;12.90;8.20;;;25.20;62.90;;;;;;218766;1291;22553;-49
2023/08/08 09:48:19;;;;;;;14.10;8.80;;;25.20;63.60;;;;;;218667;1291;22547;-46
2023/08/08 09:53:25;;;;;;;10.10;8.00;;;25.00;63.60;;;;;;218814;1286;22557;-45
2023/08/08 09:58:30;;;;;;;8.20;7.40;;;24.90;63.80;;;;;;218643;1276;24291;-46
2023/08/08 10:03:36;;;;;;;9.10;7.50;;;24.90;63.50;;;;;;218545;1270;25361;-50
2023/08/08 10:08:40;;;;;;;9.30;7.90;;;24.90;63.20;;;;;;218701;1286;23936;-47
2023/08/08 10:13:49;;;;;;;9.70;8.20;;;24.90;63.50;;;;;;218466;1283;22672;-47
2023/08/08 10:19:02;;;;;;;9.80;7.00;;;24.90;63.40;;;;;;218633;1286;22546;-51
2023/08/08 10:24:09;;;;;;;7.80;7.10;;;24.90;63.70;;;;;;218642;1273;23936;-47
2023/08/08 10:29:18;;;;;;;8.60;7.80;;;24.90;63.50;;;;;;218934;1289;24256;-48
2023/08/08 10:34:36;;;;;;;9.90;7.80;;;24.90;63.20;;;;;;218738;1286;23990;-49
2023/08/08 10:40:05;;;;;;;8.70;6.80;;;25.00;62.90;;;;;;218745;1276;22569;-47
2023/08/08 10:45:13;;;;;;;7.90;6.90;;;25.10;62.80;;;;;;218688;1270;22840;-48
2023/08/08 10:50:27;;;;;;;12.90;7.40;;;25.20;62.00;;;;;;218527;1276;22565;-49
2023/08/08 10:55:34;;;;;;;7.70;6.30;;;25.20;62.50;;;;;;218575;1283;25210;-46
2023/08/08 11:00:39;;;;;;;8.10;6.60;;;25.10;62.30;;;;;;218708;1288;23965;-46
2023/08/08 11:05:48;;;;;;;7.40;6.50;;;25.10;62.10;;;;;;218718;1289;24205;-51
2023/08/08 11:10:53;;;;;;;8.00;7.00;;;25.10;62.20;;;;;;218701;1282;26572;-46
2023/08/08 11:15:58;;;;;;;7.60;6.30;;;25.10;62.10;;;;;;218689;1276;22754;-48
2023/08/08 11:21:10;;;;;;;8.70;6.40;;;25.10;62.10;;;;;;218663;1290;22597;-46
2023/08/08 11:26:24;;;;;;;7.50;6.70;;;25.10;62.10;;;;;;218678;1282;24317;-47
2023/08/08 11:31:29;;;;;;;6.60;6.00;;;25.20;61.80;;;;;;218718;1291;22565;-48
2023/08/08 11:36:34;;;;;;;7.20;5.90;;;25.20;61.90;;;;;;218943;1285;25627;-48
2023/08/08 11:41:40;;;;;;;7.50;5.10;;;25.20;60.20;;;;;;218583;1290;24263;-49
2023/08/08 11:46:46;;;;;;;5.90;5.00;;;24.90;60.00;;;;;;218649;1287;24342;-46
2023/08/08 11:51:55;;;;;;;6.90;5.60;;;25.10;59.30;;;;;;220631;1286;22542;-50
2023/08/08 11:57:01;;;;;;;5.80;4.20;;;25.20;57.30;;;;;;218783;1289;24451;-46
2023/08/08 12:02:06;;;;;;;4.20;3.80;;;25.10;55.30;;;;;;219133;1290;22646;-49
2023/08/08 12:07:10;;;;;;;4.10;3.70;;;25.10;54.70;;;;;;218645;1286;22536;-48
2023/08/08 12:12:14;;;;;;;5.10;3.20;;;25.10;54.40;;;;;;218559;1290;22605;-48
2023/08/08 12:17:23;;;;;;;3.70;3.10;;;25.10;55.30;;;;;;218574;1289;22559;-46
2023/08/08 12:22:36;;;;;;;3.30;3.00;;;25.20;54.30;;;;;;218649;1283;25421;-49
2023/08/08 12:27:41;;;;;;;3.00;2.70;;;24.90;55.00;;;;;;218801;1283;25692;-48
2023/08/08 12:32:45;;;;;;;4.40;2.50;;;24.90;54.50;;;;;;218678;1291;24235;-50
2023/08/08 12:37:50;;;;;;;2.50;2.40;;;24.90;54.50;;;;;;218739;1283;24508;-47
2023/08/08 12:42:54;;;;;;;3.40;2.40;;;25.00;54.60;;;;;;218777;1289;23905;-47
2023/08/08 12:47:59;;;;;;;2.80;2.40;;;25.10;54.20;;;;;;218881;1286;23382;-45
2023/08/08 12:53:04;;;;;;;2.30;2.10;;;25.00;54.50;;;;;;218811;1282;22634;-45
2023/08/08 12:58:11;;;;;;;3.90;2.30;;;25.00;54.80;;;;;;218785;1282;22540;-48
2023/08/08 13:03:15;;;;;;;3.20;2.80;;;25.10;53.70;;;;;;218735;1291;25625;-47
2023/08/08 13:08:19;;;;;;;3.80;2.40;;;25.10;53.10;;;;;;218789;1276;22648;-49
2023/08/08 13:13:25;;;;;;;2.50;2.30;;;25.10;54.70;;;;;;218652;1276;24359;-47
2023/08/08 13:18:30;;;;;;;2.90;2.70;;;25.10;54.40;;;;;;218431;1291;25476;-48
2023/08/08 13:23:37;;;;;;;2.20;2.00;;;25.00;54.50;;;;;;218761;1289;22552;-47
2023/08/08 13:28:41;;;;;;;3.80;2.30;;;25.10;54.60;;;;;;218719;1276;22537;-45
2023/08/08 13:33:45;;;;;;;2.40;2.20;;;25.20;55.00;;;;;;218555;1276;22547;-47
2023/08/08 13:38:50;;;;;;;4.70;2.20;;;25.20;55.00;;;;;;218763;1285;23923;-47
2023/08/08 13:43:58;;;;;;;3.50;2.40;;;25.20;54.60;;;;;;218695;1286;25274;-48
2023/08/08 13:49:02;;;;;;;2.40;2.10;;;25.10;54.80;;;;;;218912;1279;22838;-47
2023/08/08 13:54:06;;;;;;;2.60;2.40;;;25.10;55.30;;;;;;218681;1275;22682;-47
2023/08/08 13:59:11;;;;;;;2.40;2.20;;;25.10;55.40;;;;;;218772;1283;22541;-49
2023/08/08 14:04:15;;;;;;;5.20;2.40;;;25.10;56.20;;;;;;218727;1289;22547;-47
2023/08/08 14:09:19;;;;;;;4.10;2.40;;;25.10;57.50;;;;;;218636;1273;25527;-44
2023/08/08 14:14:23;;;;;;;2.50;2.30;;;25.10;57.60;;;;;;218539;1289;376486;-49
2023/08/08 14:19:28;;;;;;;2.40;2.10;;;25.30;57.20;;;;;;218734;1284;22542;-48
2023/08/08 14:24:32;;;;;;;2.90;2.40;;;25.20;57.00;;;;;;218722;1282;22543;-50
2023/08/08 14:29:36;;;;;;;4.90;2.20;;;25.30;57.50;;;;;;218719;1289;22533;-50
2023/08/08 14:34:41;;;;;;;2.80;2.30;;;25.20;57.60;;;;;;218475;1279;24333;-50
2023/08/08 14:39:45;;;;;;;2.80;2.40;;;25.30;57.50;;;;;;218616;1282;23952;-50
2023/08/08 14:44:49;;;;;;;3.50;2.60;;;25.30;57.60;;;;;;218547;1283;22542;-49
2023/08/08 14:49:53;;;;;;;3.10;1.80;;;25.30;57.60;;;;;;218630;1289;25418;-48
2023/08/08 14:54:57;;;;;;;2.60;2.30;;;25.30;57.70;;;;;;218631;1279;22567;-48
2023/08/08 15:00:04;;;;;;;2.40;2.10;;;25.30;57.80;;;;;;218671;1289;22545;-48
2023/08/08 15:05:08;;;;;;;5.10;1.90;;;25.20;58.50;;;;;;218541;1283;22549;-50
2023/08/08 15:10:12;;;;;;;3.30;2.20;;;25.20;58.30;;;;;;218691;1279;22537;-48
2023/08/08 15:15:19;;;;;;;3.60;2.30;;;25.20;58.20;;;;;;218573;1274;22684;-47
2023/08/08 15:20:27;;;;;;;2.90;2.20;;;25.30;58.00;;;;;;218073;1282;25153;-50
2023/08/08 15:25:32;;;;;;;4.80;2.50;;;25.30;58.30;;;;;;218204;1295;22565;-51
2023/08/08 15:30:37;;;;;;;12.90;3.40;;;25.40;58.10;;;;;;217949;1295;25337;-49
2023/08/08 15:35:42;;;;;;;5.40;2.60;;;25.40;60.90;;;;;;218212;1279;24060;-49
2023/08/08 15:40:47;;;;;;;6.70;3.00;;;25.40;60.80;;;;;;217952;1294;22568;-50
2023/08/08 15:45:51;;;;;;;7.70;3.10;;;25.40;60.30;;;;;;218158;1290;22546;-48
2023/08/08 15:50:56;;;;;;;10.00;2.10;;;25.40;60.50;;;;;;218669;1276;22546;-50
2023/08/08 15:56:01;;;;;;;8.90;2.50;;;25.30;60.20;;;;;;218925;1286;22544;-45
2023/08/08 16:01:06;;;;;;;9.20;3.00;;;25.20;60.30;;;;;;218650;1289;24374;-48
2023/08/08 16:06:11;;;;;;;10.20;3.00;;;25.20;60.30;;;;;;218790;1276;22533;-49
2023/08/08 16:11:15;;;;;;;7.50;3.00;;;25.20;60.40;;;;;;218708;1286;22604;-50
2023/08/08 16:16:20;;;;;;;9.20;3.60;;;25.20;60.30;;;;;;218800;1291;22551;-50
2023/08/08 16:21:24;;;;;;;8.50;3.00;;;25.20;59.80;;;;;;218914;1290;22731;-49
2023/08/08 16:26:31;;;;;;;11.60;3.00;;;25.20;59.50;;;;;;218674;1291;22661;-50
2023/08/08 16:31:36;;;;;;;9.50;3.00;;;25.20;59.30;;;;;;218856;1291;25306;-51
2023/08/08 16:36:40;;;;;;;14.00;3.50;;;25.20;59.50;;;;;;219141;1289;22650;-51
2023/08/08 16:41:45;;;;;;;10.30;2.90;;;25.10;59.40;;;;;;218791;1290;22633;-51
2023/08/08 16:46:50;;;;;;;7.40;2.70;;;25.10;59.40;;;;;;218891;1286;22741;-51
2023/08/08 16:51:58;;;;;;;8.10;3.00;;;25.10;59.70;;;;;;218846;1289;25506;-48
2023/08/08 16:57:03;;;;;;;4.60;2.50;;;25.10;59.50;;;;;;219023;1277;25773;-48
2023/08/08 17:02:08;;;;;;;8.20;3.10;;;25.10;59.60;;;;;;218867;1285;24299;-51
2023/08/08 17:07:13;;;;;;;10.90;3.50;;;25.00;59.30;;;;;;218829;1290;23983;-49
2023/08/08 17:12:18;;;;;;;6.40;2.90;;;25.00;59.40;;;;;;219128;1284;22543;-50
2023/08/08 17:17:25;;;;;;;9.00;2.70;;;25.00;59.50;;;;;;219064;1286;22616;-51
2023/08/08 17:22:33;;;;;;;6.90;2.50;;;25.00;59.60;;;;;;218771;1283;22572;-48
2023/08/08 17:27:37;;;;;;;3.70;2.40;;;25.00;59.70;;;;;;218820;1289;22602;-55
2023/08/08 17:32:43;;;;;;;4.00;2.50;;;25.00;59.60;;;;;;218932;1286;24839;-49
2023/08/08 17:37:48;;;;;;;5.80;2.50;;;25.00;59.70;;;;;;219031;1275;22622;-50
2023/08/08 17:42:53;;;;;;;3.80;2.00;;;24.90;59.70;;;;;;218882;1276;22662;-51
2023/08/08 17:47:57;;;;;;;4.00;2.40;;;24.90;59.70;;;;;;218937;1277;25355;-52
2023/08/08 17:53:03;;;;;;;4.10;2.50;;;24.90;59.70;;;;;;218839;1279;22532;-52
2023/08/08 17:58:08;;;;;;;4.30;2.50;;;24.90;59.70;;;;;;218799;1277;24267;-49
2023/08/08 18:03:12;;;;;;;3.50;2.40;;;24.80;59.70;;;;;;219002;1286;22653;-48
2023/08/08 18:08:17;;;;;;;4.00;2.30;;;24.90;60.10;;;;;;218864;1276;22674;-48
2023/08/08 18:13:22;;;;;;;5.90;2.10;;;24.90;59.80;;;;;;218794;1289;25914;-48
2023/08/08 18:18:27;;;;;;;3.50;2.30;;;24.90;59.70;;;;;;218870;1282;25230;-50
2023/08/08 18:23:32;;;;;;;4.60;2.40;;;24.80;59.90;;;;;;219670;1289;22735;-50
2023/08/08 18:28:39;;;;;;;4.70;2.80;;;24.80;59.70;;;;;;218558;1288;22531;-48
2023/08/08 18:33:45;;;;;;;2.60;1.90;;;24.80;60.10;;;;;;218481;1289;22646;-49
2023/08/08 18:38:51;;;;;;;3.10;2.40;;;24.80;59.60;;;;;;218671;1290;22589;-51
2023/08/08 18:44:00;;;;;;;4.70;2.40;;;24.80;59.70;;;;;;218660;1286;22546;-51
2023/08/08 18:49:15;;;;;;;3.80;2.00;;;24.80;59.60;;;;;;218782;1293;25597;-51
2023/08/08 18:54:20;;;;;;;2.40;2.00;;;24.80;59.60;;;;;;218548;1289;23275;-49
2023/08/08 18:59:26;;;;;;;3.10;2.10;;;24.70;60.00;;;;;;218389;1292;22572;-48
2023/08/08 19:04:33;;;;;;;3.50;2.40;;;24.70;60.10;;;;;;218767;1279;25299;-53
2023/08/08 19:09:38;;;;;;;4.90;2.60;;;24.70;59.90;;;;;;218843;1286;22543;-49
2023/08/08 19:14:44;;;;;;;3.30;2.20;;;24.70;59.70;;;;;;218644;1289;25626;-47
2023/08/08 19:19:49;;;;;;;3.80;2.10;;;24.70;59.60;;;;;;218786;1278;25338;-48
2023/08/08 19:24:54;;;;;;;5.10;2.00;;;24.60;59.70;;;;;;218801;1278;23008;-49
2023/08/08 19:30:00;;;;;;;2.70;2.10;;;24.70;59.50;;;;;;218562;1292;22683;-50
2023/08/08 19:35:06;;;;;;;3.20;2.00;;;24.70;59.50;;;;;;218435;1283;25370;-48
2023/08/08 19:40:11;;;;;;;2.90;1.80;;;24.70;59.60;;;;;;218343;1294;22945;-50
2023/08/08 19:45:16;;;;;;;1.90;1.70;;;24.70;59.40;;;;;;218831;1280;24331;-50
2023/08/08 19:50:22;;;;;;;1.80;1.70;;;24.70;60.00;;;;;;218346;1289;23983;-49
2023/08/08 19:55:28;;;;;;;2.40;2.00;;;24.60;59.40;;;;;;218685;1288;24293;-52
2023/08/08 20:00:33;;;;;;;2.40;1.80;;;24.60;59.30;;;;;;218755;1290;22946;-52
2023/08/08 20:05:38;;;;;;;2.60;2.00;;;24.60;59.30;;;;;;218703;1289;22749;-49
2023/08/08 20:10:42;;;;;;;2.30;1.90;;;24.60;59.80;;;;;;219046;1285;24408;-51
2023/08/08 20:15:48;;;;;;;1.80;1.70;;;24.60;59.40;;;;;;218898;1286;22798;-51
2023/08/08 20:20:53;;;;;;;2.10;1.90;;;24.60;59.40;;;;;;218965;1286;25303;-53
2023/08/08 20:25:58;;;;;;;3.40;1.80;;;24.50;59.60;;;;;;219054;1289;24224;-49
2023/08/08 20:31:03;;;;;;;2.60;1.70;;;24.60;59.40;;;;;;219154;1280;22536;-50
2023/08/08 20:36:08;;;;;;;2.00;1.30;;;24.60;59.30;;;;;;218848;1283;22662;-50
2023/08/08 20:41:14;;;;;;;2.80;1.70;;;24.60;59.30;;;;;;218826;1286;22661;-52
2023/08/08 20:46:19;;;;;;;2.50;1.80;;;24.60;59.30;;;;;;219031;1286;25272;-52
2023/08/08 20:51:25;;;;;;;2.10;1.90;;;24.50;59.50;;;;;;219024;1286;24229;-46
2023/08/08 20:56:31;;;;;;;2.60;1.80;;;24.60;59.30;;;;;;218682;1283;25607;-49
2023/08/08 21:01:38;;;;;;;2.30;1.70;;;24.50;59.30;;;;;;218869;1289;22683;-53
2023/08/08 21:06:48;;;;;;;2.60;2.00;;;24.50;59.40;;;;;;218820;1289;22691;-50
2023/08/08 21:11:53;;;;;;;2.00;1.90;;;24.50;59.40;;;;;;218698;1289;22538;-49
2023/08/08 21:16:57;;;;;;;1.90;1.50;;;24.50;59.30;;;;;;219021;1283;23055;-49
2023/08/08 21:22:03;;;;;;;1.70;1.60;;;24.40;59.30;;;;;;218981;1289;25680;-50
2023/08/08 21:27:07;;;;;;;2.10;1.90;;;24.40;59.50;;;;;;218843;1291;24261;-49
2023/08/08 21:32:12;;;;;;;2.30;1.80;;;24.40;59.60;;;;;;218964;1288;24225;-51
2023/08/08 21:37:17;;;;;;;2.40;1.70;;;24.40;59.50;;;;;;218822;1290;22692;-49
2023/08/08 21:42:21;;;;;;;3.00;1.80;;;24.40;59.30;;;;;;219069;1283;24320;-51
2023/08/08 21:47:25;;;;;;;1.60;1.50;;;24.50;59.20;;;;;;218898;1291;22551;-51
2023/08/08 21:52:30;;;;;;;1.80;1.60;;;24.50;58.80;;;;;;219240;1286;22574;-51
2023/08/08 21:57:34;;;;;;;1.80;1.60;;;24.50;59.00;;;;;;219022;1286;22721;-52
2023/08/08 22:02:39;;;;;;;1.60;1.50;;;24.50;59.10;;;;;;218695;1283;22708;-45
2023/08/08 22:07:44;;;;;;;1.80;1.70;;;24.50;59.00;;;;;;218888;1286;22557;-49
2023/08/08 22:12:54;;;;;;;2.00;1.40;;;24.60;58.80;;;;;;219048;1286;22539;-52
2023/08/08 22:18:08;;;;;;;1.70;1.60;;;24.50;59.00;;;;;;218793;1286;23339;-50
2023/08/08 22:23:14;;;;;;;2.40;1.40;;;24.50;58.90;;;;;;219014;1291;22846;-50
2023/08/08 22:28:23;;;;;;;1.60;1.50;;;24.50;58.80;;;;;;218894;1285;22539;-51
2023/08/08 22:33:28;;;;;;;1.40;1.30;;;24.50;58.90;;;;;;218818;1284;23916;-53
2023/08/08 22:38:33;;;;;;;1.60;1.40;;;24.50;58.90;;;;;;218881;1286;24349;-48
2023/08/08 22:43:37;;;;;;;1.40;1.30;;;24.40;59.10;;;;;;219228;1283;22621;-52
2023/08/08 22:48:41;;;;;;;2.50;1.90;;;24.40;59.40;;;;;;218829;1289;22641;-50
2023/08/08 22:53:46;;;;;;;1.90;1.80;;;24.40;58.90;;;;;;218689;1289;22680;-50
2023/08/08 22:58:50;;;;;;;1.90;1.30;;;24.40;59.10;;;;;;218722;1289;22628;-50
2023/08/08 23:03:54;;;;;;;1.70;1.40;;;24.30;59.20;;;;;;218662;1290;23927;-48
2023/08/08 23:08:58;;;;;;;1.40;1.30;;;24.30;59.00;;;;;;218991;1288;22539;-53
2023/08/08 23:14:03;;;;;;;1.50;1.40;;;24.30;59.10;;;;;;218808;1292;22655;-49
2023/08/08 23:19:07;;;;;;;1.40;1.30;;;24.30;59.40;;;;;;218761;1292;25403;-46
2023/08/08 23:24:12;;;;;;;1.40;1.30;;;24.30;59.10;;;;;;219152;1286;25462;-49
2023/08/08 23:29:16;;;;;;;1.50;1.40;;;24.30;59.10;;;;;;218812;1289;25553;-48
2023/08/08 23:34:21;;;;;;;1.30;1.20;;;24.30;59.10;;;;;;218875;1291;22529;-51
2023/08/08 23:39:25;;;;;;;1.40;1.30;;;24.30;59.10;;;;;;219029;1286;24237;-57
2023/08/08 23:44:29;;;;;;;1.50;1.40;;;24.20;59.10;;;;;;219017;1286;22556;-49
2023/08/08 23:49:33;;;;;;;1.60;1.50;;;24.20;59.20;;;;;;218901;1289;24231;-52
2023/08/08 23:54:38;;;;;;;0.90;0.90;;;24.20;59.10;;;;;;218870;1291;22618;-52
2023/08/08 23:59:42;;;;;;;1.70;1.30;;;24.10;59.30;;;;;;218837;1289;22592;-48
